createdAt,value
2018-01-11T00:01:14.447Z,91.90
2018-01-11T00:03:41.915Z,91.90
2018-01-11T00:06:09.363Z,91.90
2018-01-11T00:08:36.820Z,91.90
2018-01-11T00:11:04.280Z,91.80
2018-01-11T00:13:31.743Z,91.70
2018-01-11T00:15:59.183Z,91.30
2018-01-11T00:18:26.672Z,91.50
2018-01-11T00:20:54.883Z,91.60
2018-01-11T00:23:22.383Z,91.60
2018-01-11T00:25:49.835Z,91.60
2018-01-11T00:28:17.287Z,91.60
2018-01-11T00:30:44.739Z,91.60
2018-01-11T00:33:12.200Z,91.50
2018-01-11T00:35:39.653Z,91.60
2018-01-11T00:38:07.115Z,91.30
2018-01-11T00:40:34.568Z,91.30
2018-01-11T00:43:02.027Z,91.30
2018-01-11T00:45:29.487Z,91.20
2018-01-11T00:47:56.934Z,91.20
2018-01-11T00:50:24.389Z,91.20
2018-01-11T00:52:51.844Z,91.10
2018-01-11T00:55:19.299Z,91.00
2018-01-11T00:57:46.759Z,91.00
2018-01-11T01:00:14.211Z,90.70
2018-01-11T01:02:41.672Z,90.90
2018-01-11T01:05:09.131Z,91.00
2018-01-11T01:07:36.588Z,91.10
2018-01-11T01:10:04.040Z,91.20
2018-01-11T01:12:31.499Z,91.10
2018-01-11T01:14:58.956Z,91.20
2018-01-11T01:17:26.407Z,91.30
2018-01-11T01:19:53.867Z,91.40
2018-01-11T01:22:21.323Z,91.60
2018-01-11T01:24:48.780Z,91.70
2018-01-11T01:27:16.232Z,91.60
2018-01-11T01:29:43.691Z,91.60
2018-01-11T01:32:11.148Z,91.70
2018-01-11T01:34:38.607Z,91.70
2018-01-11T01:37:06.059Z,91.80
2018-01-11T01:39:33.510Z,91.90
2018-01-11T01:42:00.973Z,92.10
2018-01-11T01:44:28.434Z,92.00
2018-01-11T01:46:55.886Z,92.20
2018-01-11T01:49:23.347Z,92.00
2018-01-11T01:51:50.800Z,92.00
2018-01-11T01:54:18.247Z,92.20
2018-01-11T01:56:45.707Z,92.60
2018-01-11T01:59:13.163Z,92.80
2018-01-11T02:01:40.619Z,92.40
2018-01-11T02:04:08.074Z,92.30
2018-01-11T02:06:35.536Z,92.30
2018-01-11T02:09:02.982Z,92.30
2018-01-11T02:11:30.447Z,92.40
2018-01-11T02:13:57.899Z,92.40
2018-01-11T02:16:25.363Z,92.30
2018-01-11T02:18:52.824Z,92.40
2018-01-11T02:21:20.275Z,92.30
2018-01-11T02:23:47.727Z,92.40
2018-01-11T02:26:15.178Z,92.60
2018-01-11T02:28:42.635Z,92.70
2018-01-11T02:31:10.096Z,93.00
2018-01-11T02:33:37.551Z,93.20
2018-01-11T02:36:05.023Z,93.30
2018-01-11T02:38:32.472Z,93.20
2018-01-11T02:40:59.934Z,93.10
2018-01-11T02:43:28.160Z,93.30
2018-01-11T02:45:55.620Z,92.90
2018-01-11T02:48:23.079Z,93.00
2018-01-11T02:50:50.547Z,93.00
2018-01-11T02:53:18.007Z,93.10
2018-01-11T02:55:45.543Z,93.30
2018-01-11T02:58:13.005Z,93.30
2018-01-11T03:00:40.475Z,93.30
2018-01-11T03:03:07.933Z,93.10
2018-01-11T03:05:35.407Z,93.10
2018-01-11T03:08:02.859Z,93.20
2018-01-11T03:10:30.308Z,93.30
2018-01-11T03:12:57.777Z,93.40
2018-01-11T03:15:25.227Z,93.30
2018-01-11T03:17:52.683Z,93.30
2018-01-11T03:20:20.143Z,93.40
2018-01-11T03:22:47.604Z,93.20
2018-01-11T03:25:15.053Z,93.20
2018-01-11T03:27:42.510Z,93.30
2018-01-11T03:30:09.968Z,93.20
2018-01-11T03:32:37.428Z,93.30
2018-01-11T03:35:04.879Z,93.40
2018-01-11T03:37:32.338Z,93.50
2018-01-11T03:39:59.793Z,93.40
2018-01-11T03:42:27.251Z,93.40
2018-01-11T03:44:54.708Z,93.40
2018-01-11T03:47:22.163Z,93.40
2018-01-11T03:49:49.615Z,93.40
2018-01-11T03:52:17.087Z,93.50
2018-01-11T03:54:44.532Z,93.40
2018-01-11T03:57:12.807Z,93.50
2018-01-11T03:59:40.404Z,93.60
2018-01-11T04:02:07.808Z,93.60
2018-01-11T04:04:35.263Z,93.70
2018-01-11T04:07:02.723Z,93.80
2018-01-11T04:09:30.175Z,93.80
2018-01-11T04:11:57.644Z,93.70
2018-01-11T04:14:25.112Z,93.60
2018-01-11T04:16:52.555Z,93.80
2018-01-11T04:19:20.023Z,93.90
2018-01-11T04:21:47.478Z,93.60
2018-01-11T04:24:14.945Z,93.60
2018-01-11T04:26:43.164Z,93.50
2018-01-11T04:29:10.623Z,93.50
2018-01-11T04:31:38.074Z,93.60
2018-01-11T04:34:05.539Z,93.60
2018-01-11T04:36:32.983Z,93.70
2018-01-11T04:39:00.444Z,93.80
2018-01-11T04:41:27.900Z,93.80
2018-01-11T04:43:55.351Z,93.80
2018-01-11T04:46:23.015Z,93.90
2018-01-11T04:48:50.478Z,93.80
2018-01-11T04:51:17.951Z,94.10
2018-01-11T04:53:45.415Z,94.20
2018-01-11T04:56:12.883Z,94.20
2018-01-11T04:58:40.335Z,94.30
2018-01-11T05:01:07.792Z,94.10
2018-01-11T05:03:35.276Z,94.10
2018-01-11T05:06:03.508Z,94.20
2018-01-11T05:08:30.979Z,94.20
2018-01-11T05:10:58.437Z,94.10
2018-01-11T05:13:25.891Z,94.00
2018-01-11T05:15:53.351Z,94.00
2018-01-11T05:18:20.859Z,94.00
2018-01-11T05:20:49.196Z,94.00
2018-01-11T05:23:16.678Z,93.80
2018-01-11T05:25:44.154Z,94.00
2018-01-11T05:28:11.854Z,94.00
2018-01-11T05:30:39.340Z,94.00
2018-01-11T05:33:07.555Z,94.10
2018-01-11T05:35:35.112Z,94.10
2018-01-11T05:38:02.567Z,94.30
2018-01-11T05:40:30.023Z,94.40
2018-01-11T05:42:57.480Z,94.50
2018-01-11T05:45:24.936Z,94.50
2018-01-11T05:47:52.392Z,94.90
2018-01-11T05:50:19.924Z,94.60
2018-01-11T05:52:47.429Z,94.60
2018-01-11T05:55:14.899Z,94.70
2018-01-11T05:57:42.354Z,94.80
2018-01-11T06:00:09.824Z,94.70
2018-01-11T06:02:37.280Z,94.70
2018-01-11T06:05:04.729Z,94.80
2018-01-11T06:07:32.179Z,94.70
2018-01-11T06:09:59.640Z,94.70
2018-01-11T06:12:27.094Z,94.70
2018-01-11T06:14:54.559Z,94.70
2018-01-11T06:17:22.276Z,94.70
2018-01-11T06:19:49.731Z,94.70
2018-01-11T06:22:17.187Z,94.80
2018-01-11T06:24:44.643Z,94.80
2018-01-11T06:27:12.100Z,94.80
2018-01-11T06:29:39.560Z,94.90
2018-01-11T06:32:07.016Z,94.90
2018-01-11T06:34:34.467Z,95.10
2018-01-11T06:37:01.928Z,95.40
2018-01-11T06:39:29.387Z,95.50
2018-01-11T06:41:56.844Z,95.00
2018-01-11T06:44:24.299Z,94.70
2018-01-11T06:46:51.767Z,94.40
2018-01-11T06:49:19.223Z,94.40
2018-01-11T06:51:46.683Z,94.10
2018-01-11T06:54:14.147Z,94.00
2018-01-11T06:56:41.612Z,93.80
2018-01-11T06:59:09.067Z,93.80
2018-01-11T07:01:37.312Z,93.70
2018-01-11T07:04:04.988Z,93.70
2018-01-11T07:06:32.460Z,93.80
2018-01-11T07:08:59.915Z,93.90
2018-01-11T07:11:27.383Z,94.00
2018-01-11T07:13:54.839Z,94.10
2018-01-11T07:16:22.298Z,94.10
2018-01-11T07:18:49.752Z,94.20
2018-01-11T07:21:17.212Z,94.10
2018-01-11T07:23:44.674Z,94.00
2018-01-11T07:26:12.907Z,94.20
2018-01-11T07:28:40.361Z,94.10
2018-01-11T07:31:07.834Z,94.10
2018-01-11T07:33:35.275Z,94.00
2018-01-11T07:36:02.731Z,94.00
2018-01-11T07:38:30.228Z,94.00
2018-01-11T07:40:58.459Z,94.00
2018-01-11T07:43:25.907Z,93.90
2018-01-11T07:45:53.371Z,93.90
2018-01-11T07:48:20.821Z,93.90
2018-01-11T07:50:48.276Z,94.00
2018-01-11T07:53:16.736Z,94.00
2018-01-11T07:55:44.204Z,94.00
2018-01-11T07:58:11.668Z,94.00
2018-01-11T08:00:39.119Z,94.10
2018-01-11T08:03:06.588Z,94.00
2018-01-11T08:05:34.036Z,94.00
2018-01-11T08:08:01.501Z,93.90
2018-01-11T08:10:28.943Z,93.90
2018-01-11T08:12:56.402Z,93.90
2018-01-11T08:15:23.863Z,93.90
2018-01-11T08:17:51.322Z,93.80
2018-01-11T08:20:18.779Z,93.70
2018-01-11T08:22:46.248Z,93.70
2018-01-11T08:25:13.708Z,93.70
2018-01-11T08:27:41.182Z,93.70
2018-01-11T08:30:08.644Z,93.70
2018-01-11T08:32:36.108Z,93.50
2018-01-11T08:35:03.558Z,93.20
2018-01-11T08:37:31.011Z,93.10
2018-01-11T08:39:58.466Z,93.00
2018-01-11T08:42:25.925Z,92.50
2018-01-11T08:44:53.386Z,92.40
2018-01-11T08:47:20.840Z,92.30
2018-01-11T08:49:48.295Z,92.40
2018-01-11T08:52:16.536Z,92.10
2018-01-11T08:54:43.980Z,92.10
2018-01-11T08:57:11.446Z,91.40
2018-01-11T08:59:38.903Z,91.20
2018-01-11T09:02:06.363Z,90.70
2018-01-11T09:04:33.816Z,90.60
2018-01-11T09:07:01.286Z,90.90
2018-01-11T09:09:28.753Z,91.10
2018-01-11T09:11:56.204Z,90.90
2018-01-11T09:14:23.662Z,90.90
2018-01-11T09:16:51.115Z,90.70
2018-01-11T09:19:18.579Z,90.60
2018-01-11T09:21:46.032Z,90.20
2018-01-11T09:24:13.496Z,90.40
2018-01-11T09:26:40.952Z,90.60
2018-01-11T09:29:08.408Z,90.80
2018-01-11T09:31:35.867Z,90.80
2018-01-11T09:34:03.335Z,91.10
2018-01-11T09:36:31.560Z,90.60
2018-01-11T09:38:59.023Z,90.60
2018-01-11T09:41:26.484Z,90.30
2018-01-11T09:43:54.001Z,90.10
2018-01-11T09:46:21.457Z,89.40
2018-01-11T09:48:48.912Z,88.20
2018-01-11T09:51:16.366Z,86.30
2018-01-11T09:53:43.818Z,82.40
2018-01-11T09:56:11.267Z,77.60
2018-01-11T09:58:39.492Z,71.00
2018-01-11T10:01:06.943Z,71.00
2018-01-11T10:03:34.398Z,67.30
2018-01-11T10:06:01.847Z,66.20
2018-01-11T10:08:29.307Z,64.90
2018-01-11T10:10:56.750Z,63.90
2018-01-11T10:13:24.211Z,62.90
2018-01-11T10:15:51.667Z,61.00
2018-01-11T10:18:19.131Z,59.50
2018-01-11T10:20:46.587Z,58.10
2018-01-11T10:23:14.039Z,57.90
2018-01-11T10:25:41.499Z,56.90
2018-01-11T10:28:08.954Z,57.30
2018-01-11T10:30:36.412Z,56.10
2018-01-11T10:33:03.869Z,56.20
2018-01-11T10:35:31.331Z,55.70
2018-01-11T10:37:58.799Z,54.80
2018-01-11T10:40:26.259Z,53.40
2018-01-11T10:42:53.712Z,53.50
2018-01-11T10:45:21.174Z,53.60
2018-01-11T10:47:48.632Z,52.80
2018-01-11T10:50:16.102Z,52.30
2018-01-11T10:52:43.549Z,53.10
2018-01-11T10:55:11.009Z,53.00
2018-01-11T10:57:38.457Z,52.20
2018-01-11T11:00:05.925Z,51.60
2018-01-11T11:02:39.084Z,51.70
2018-01-11T11:05:06.551Z,50.00
2018-01-11T11:07:33.996Z,50.80
2018-01-11T11:10:01.456Z,49.20
2018-01-11T11:12:28.912Z,48.90
2018-01-11T11:14:56.368Z,49.50
2018-01-11T11:17:24.592Z,48.50
2018-01-11T11:19:52.815Z,48.70
2018-01-11T11:22:20.274Z,48.10
2018-01-11T11:24:47.735Z,48.60
2018-01-11T11:27:15.189Z,48.20
2018-01-11T11:29:42.664Z,48.90
2018-01-11T11:32:10.119Z,50.20
2018-01-11T11:34:37.595Z,49.00
2018-01-11T11:37:05.055Z,50.00
2018-01-11T11:39:32.503Z,49.30
2018-01-11T11:41:59.962Z,47.80
2018-01-11T11:44:27.419Z,47.80
2018-01-11T11:46:54.878Z,49.40
2018-01-11T11:49:22.333Z,47.90
2018-01-11T11:51:49.788Z,47.90
2018-01-11T11:54:17.247Z,47.50
2018-01-11T11:56:44.707Z,47.80
2018-01-11T11:59:12.164Z,48.10
2018-01-11T12:01:39.626Z,47.60
2018-01-11T12:04:07.076Z,47.70
2018-01-11T12:06:34.539Z,49.20
2018-01-11T12:09:01.983Z,48.80
2018-01-11T12:11:29.448Z,48.10
2018-01-11T12:13:56.900Z,48.80
2018-01-11T12:16:24.363Z,49.70
2018-01-11T12:18:51.816Z,50.20
2018-01-11T12:21:19.268Z,49.30
2018-01-11T12:23:46.720Z,49.20
2018-01-11T12:26:14.180Z,49.30
2018-01-11T12:28:41.640Z,48.80
2018-01-11T12:31:09.104Z,48.50
2018-01-11T12:33:36.547Z,48.20
2018-01-11T12:36:04.016Z,48.00
2018-01-11T12:38:31.460Z,48.30
2018-01-11T12:40:58.921Z,49.10
2018-01-11T12:43:26.375Z,49.60
2018-01-11T12:45:53.831Z,49.70
2018-01-11T12:48:21.296Z,51.00
2018-01-11T12:50:48.741Z,51.60
2018-01-11T12:53:16.213Z,51.80
2018-01-11T12:55:43.660Z,52.60
2018-01-11T12:58:11.123Z,53.50
2018-01-11T13:00:38.576Z,54.40
2018-01-11T13:03:06.044Z,55.80
2018-01-11T13:05:33.488Z,57.90
2018-01-11T13:08:00.949Z,58.10
2018-01-11T13:10:28.388Z,59.10
2018-01-11T13:12:55.847Z,60.20
2018-01-11T13:15:23.324Z,60.40
2018-01-11T13:17:50.780Z,59.60
2018-01-11T13:20:18.227Z,59.40
2018-01-11T13:22:45.686Z,58.00
2018-01-11T13:25:13.154Z,57.10
2018-01-11T13:27:40.605Z,54.60
2018-01-11T13:30:08.684Z,53.40
2018-01-11T13:32:36.145Z,51.80
2018-01-11T13:35:03.587Z,50.90
2018-01-11T13:37:31.039Z,49.40
2018-01-11T13:39:58.496Z,48.20
2018-01-11T13:42:26.008Z,49.20
2018-01-11T13:44:53.444Z,48.70
2018-01-11T13:47:21.663Z,48.00
2018-01-11T13:49:49.335Z,47.90
2018-01-11T13:52:16.886Z,47.90
2018-01-11T13:54:45.152Z,47.60
2018-01-11T13:57:12.596Z,47.50
2018-01-11T13:59:40.088Z,47.20
2018-01-11T14:02:07.552Z,47.00
2018-01-11T14:04:35.023Z,46.50
2018-01-11T14:07:02.554Z,45.50
2018-01-11T14:09:30.019Z,46.10
2018-01-11T14:11:57.479Z,45.90
2018-01-11T14:14:29.587Z,46.20
2018-01-11T14:16:59.449Z,46.40
2018-01-11T14:19:27.737Z,46.30
2018-01-11T14:21:56.098Z,45.70
2018-01-11T14:24:23.613Z,46.70
2018-01-11T14:26:51.063Z,47.60
2018-01-11T14:29:18.538Z,49.10
2018-01-11T14:31:45.994Z,49.90
2018-01-11T14:34:13.468Z,52.60
2018-01-11T14:36:41.256Z,54.00
2018-01-11T14:39:08.742Z,56.00
2018-01-11T14:41:36.194Z,58.10
2018-01-11T14:44:04.548Z,59.40
2018-01-11T14:46:32.012Z,59.40
2018-01-11T14:48:59.477Z,60.10
2018-01-11T14:51:27.699Z,61.80
2018-01-11T14:53:55.162Z,61.80
2018-01-11T14:56:22.626Z,63.00
2018-01-11T14:58:50.087Z,64.30
2018-01-11T15:01:17.544Z,65.20
2018-01-11T15:03:44.999Z,65.80
2018-01-11T15:06:12.455Z,67.70
2018-01-11T15:08:39.911Z,68.50
2018-01-11T15:11:07.361Z,69.20
2018-01-11T15:13:34.811Z,68.70
2018-01-11T15:16:02.280Z,69.40
2018-01-11T15:18:29.727Z,70.10
2018-01-11T15:20:57.183Z,70.60
2018-01-11T15:23:24.636Z,71.30
2018-01-11T15:25:52.103Z,71.60
2018-01-11T15:28:19.560Z,71.90
2018-01-11T15:30:47.008Z,72.50
2018-01-11T15:33:14.512Z,72.60
2018-01-11T15:35:42.726Z,73.60
2018-01-11T15:40:42.493Z,74.40
2018-01-11T15:43:09.949Z,74.60
2018-01-11T15:45:37.404Z,74.90
2018-01-11T15:48:04.859Z,75.20
2018-01-11T15:50:32.313Z,75.70
2018-01-11T15:52:59.770Z,76.10
2018-01-11T15:55:27.215Z,76.80
2018-01-11T15:57:54.658Z,77.10
2018-01-11T16:00:22.115Z,77.40
2018-01-11T16:02:49.558Z,77.60
2018-01-11T16:05:17.015Z,77.70
2018-01-11T16:07:44.468Z,77.90
2018-01-11T16:10:11.921Z,78.10
2018-01-11T16:12:39.360Z,78.20
2018-01-11T16:15:07.580Z,78.30
2018-01-11T16:17:35.059Z,78.30
2018-01-11T16:20:02.491Z,78.20
2018-01-11T16:22:29.952Z,78.60
2018-01-11T16:24:57.440Z,78.50
2018-01-11T16:27:25.659Z,79.00
2018-01-11T16:29:53.115Z,79.00
2018-01-11T16:32:20.568Z,78.20
2018-01-11T16:34:48.124Z,78.40
2018-01-11T16:37:15.575Z,77.90
2018-01-11T16:39:43.019Z,78.80
2018-01-11T16:42:10.467Z,78.50
2018-01-11T16:44:38.700Z,79.60
2018-01-11T16:47:06.151Z,79.60
2018-01-11T16:49:33.599Z,79.20
2018-01-11T16:52:01.090Z,79.40
2018-01-11T16:54:28.812Z,79.20
2018-01-11T16:56:56.484Z,79.00
2018-01-11T16:59:23.950Z,79.30
2018-01-11T17:01:51.405Z,79.40
2018-01-11T17:04:18.907Z,79.30
2018-01-11T17:06:47.123Z,80.00
2018-01-11T17:09:14.564Z,79.90
2018-01-11T17:11:42.834Z,80.00
2018-01-11T17:14:10.280Z,80.00
2018-01-11T17:16:37.726Z,79.80
2018-01-11T17:19:05.939Z,80.40
2018-01-11T17:21:33.387Z,80.40
2018-01-11T17:24:00.842Z,80.40
2018-01-11T17:26:28.299Z,80.50
2018-01-11T17:28:55.739Z,81.00
2018-01-11T17:31:23.191Z,80.90
2018-01-11T17:33:50.630Z,81.30
2018-01-11T17:36:18.864Z,81.80
2018-01-11T17:38:46.311Z,81.80
2018-01-11T17:41:13.760Z,82.00
2018-01-11T17:43:41.212Z,81.80
2018-01-11T17:46:08.664Z,82.30
2018-01-11T17:48:36.125Z,82.30
2018-01-11T17:51:03.575Z,82.50
2018-01-11T17:53:31.039Z,82.60
2018-01-11T17:55:58.495Z,82.60
2018-01-11T17:58:25.948Z,82.60
2018-01-11T18:00:53.402Z,82.60
2018-01-11T18:03:20.859Z,82.80
2018-01-11T18:05:48.316Z,82.60
2018-01-11T18:08:15.774Z,82.80
2018-01-11T18:10:43.227Z,83.10
2018-01-11T18:13:10.689Z,83.10
2018-01-11T18:15:38.142Z,83.30
2018-01-11T18:18:06.369Z,83.70
2018-01-11T18:20:33.820Z,83.60
2018-01-11T18:23:01.275Z,83.60
2018-01-11T18:25:28.723Z,83.60
2018-01-11T18:27:56.175Z,83.20
2018-01-11T18:30:23.624Z,83.60
2018-01-11T18:32:51.099Z,83.80
2018-01-11T18:35:18.547Z,83.20
2018-01-11T18:37:45.998Z,83.10
2018-01-11T18:40:13.442Z,83.20
2018-01-11T18:42:40.894Z,83.60
2018-01-11T18:45:08.387Z,83.60
2018-01-11T18:47:36.619Z,84.10
2018-01-11T18:50:04.064Z,84.10
2018-01-11T18:52:31.618Z,83.90
2018-01-11T18:54:59.073Z,83.90
2018-01-11T18:57:26.514Z,83.80
2018-01-11T18:59:53.975Z,84.40
2018-01-11T19:02:21.417Z,84.70
2018-01-11T19:04:49.630Z,85.40
2018-01-11T19:07:17.078Z,85.30
2018-01-11T19:09:44.532Z,85.50
2018-01-11T19:12:11.991Z,86.30
2018-01-11T19:14:39.556Z,85.90
2018-01-11T19:17:07.003Z,85.90
2018-01-11T19:19:34.463Z,86.20
2018-01-11T19:22:01.920Z,86.30
2018-01-11T19:24:29.380Z,86.30
2018-01-11T19:26:56.827Z,86.40
2018-01-11T19:29:24.287Z,86.70
2018-01-11T19:31:51.739Z,86.80
2018-01-11T19:34:19.196Z,87.00
2018-01-11T19:36:46.658Z,87.30
2018-01-11T19:39:14.115Z,87.60
2018-01-11T19:41:41.566Z,87.20
2018-01-11T19:44:09.022Z,87.60
2018-01-11T19:46:36.478Z,87.30
2018-01-11T19:49:03.940Z,87.30
2018-01-11T19:51:31.431Z,87.50
2018-01-11T19:53:58.883Z,87.30
2018-01-11T19:56:26.338Z,87.60
2018-01-11T19:58:53.835Z,87.80
2018-01-11T20:01:22.051Z,87.70
2018-01-11T20:03:49.501Z,87.60
2018-01-11T20:06:16.951Z,87.70
2018-01-11T20:08:44.394Z,86.90
2018-01-11T20:11:11.847Z,87.00
2018-01-11T20:13:39.307Z,86.80
2018-01-11T20:16:06.776Z,86.50
2018-01-11T20:18:34.217Z,86.30
2018-01-11T20:21:10.139Z,86.20
2018-01-11T20:23:37.583Z,86.10
2018-01-11T20:26:05.085Z,86.10
2018-01-11T20:28:33.294Z,86.30
2018-01-11T20:31:00.766Z,86.30
2018-01-11T20:33:28.215Z,85.90
2018-01-11T20:35:55.675Z,86.40
2018-01-11T20:38:23.127Z,86.30
2018-01-11T20:40:50.630Z,86.10
2018-01-11T20:43:18.840Z,85.50
2018-01-11T20:45:46.352Z,85.50
2018-01-11T20:48:13.783Z,85.20
2018-01-11T20:50:41.247Z,85.10
2018-01-11T20:53:08.698Z,84.90
2018-01-11T20:55:36.539Z,84.20
2018-01-11T20:58:04.000Z,84.40
2018-01-11T21:00:31.451Z,84.30
2018-01-11T21:02:58.908Z,84.70
2018-01-11T21:05:26.363Z,84.80
2018-01-11T21:07:53.851Z,85.00
2018-01-11T21:10:21.331Z,85.10
2018-01-11T21:12:49.567Z,85.00
2018-01-11T21:15:17.069Z,85.00
2018-01-11T21:17:45.274Z,85.20
2018-01-11T21:20:12.733Z,85.20
2018-01-11T21:22:40.183Z,85.50
2018-01-11T21:25:07.683Z,85.80
2018-01-11T21:27:35.189Z,85.90
2018-01-11T21:30:02.705Z,86.00
2018-01-11T21:32:30.158Z,85.80
2018-01-11T21:34:58.472Z,86.30
2018-01-11T21:37:25.939Z,86.20
2018-01-11T21:39:53.441Z,86.30
2018-01-11T21:42:20.891Z,86.60
2018-01-11T21:44:48.348Z,86.30
2018-01-11T21:47:15.815Z,86.30
2018-01-11T21:49:43.303Z,86.40
2018-01-11T21:52:11.523Z,85.60
2018-01-11T21:54:38.966Z,86.30
2018-01-11T21:57:06.430Z,85.80
2018-01-11T21:59:33.895Z,85.80
2018-01-11T22:02:01.402Z,85.80
2018-01-11T22:04:28.860Z,85.90
2018-01-11T22:06:56.321Z,85.70
2018-01-11T22:09:23.775Z,86.00
2018-01-11T22:11:51.227Z,85.50
2018-01-11T22:14:18.721Z,85.60
2018-01-11T22:16:46.185Z,85.40
2018-01-11T22:19:13.639Z,85.80
2018-01-11T22:21:41.102Z,85.90
2018-01-11T22:24:08.544Z,86.00
2018-01-11T22:26:36.007Z,86.00
2018-01-11T22:29:03.458Z,86.40
2018-01-11T22:31:30.932Z,86.10
2018-01-11T22:33:58.370Z,86.40
2018-01-11T22:36:25.823Z,86.80
2018-01-11T22:38:53.288Z,87.10
2018-01-11T22:41:20.742Z,87.20
2018-01-11T22:43:48.186Z,87.00
2018-01-11T22:46:15.638Z,87.20
2018-01-11T22:48:43.859Z,87.10
2018-01-11T22:51:11.302Z,87.00
2018-01-11T22:53:38.764Z,87.10
2018-01-11T22:56:06.220Z,87.00
2018-01-11T22:58:33.670Z,87.00
2018-01-11T23:01:01.124Z,87.00
2018-01-11T23:03:28.578Z,86.90
2018-01-11T23:05:56.019Z,87.00
2018-01-11T23:08:23.476Z,87.40
2018-01-11T23:10:50.926Z,87.30
2018-01-11T23:13:18.382Z,87.30
2018-01-11T23:15:45.827Z,87.70
2018-01-11T23:18:13.347Z,87.60
2018-01-11T23:20:41.563Z,86.80
2018-01-11T23:23:09.018Z,86.80
2018-01-11T23:25:36.472Z,86.80
2018-01-11T23:28:03.935Z,86.90
2018-01-11T23:30:31.383Z,86.80
2018-01-11T23:32:58.845Z,86.60
2018-01-11T23:35:26.295Z,86.90
2018-01-11T23:37:53.755Z,86.60
2018-01-11T23:40:21.209Z,86.80
2018-01-11T23:42:48.679Z,86.60
2018-01-11T23:45:16.231Z,86.60
2018-01-11T23:47:43.682Z,86.50
2018-01-11T23:50:11.138Z,85.90
2018-01-11T23:52:38.591Z,86.50
2018-01-11T23:55:06.046Z,86.80
2018-01-11T23:57:33.503Z,86.90
